Time;durP1;ratioP1;P1;durP2;ratioP2;P2;SDS_P1;SDS_P2;PMS_P1;PMS_P2;Temp;Humidity;BMP_temperature;BMP_pressure;BME280_temperature;BME280_humidity;BME280_pressure;Samples;Min_cycle;Max_cycle;Signal;HPM_P1;HPM_P2
2023/01/13 00:00:44;;;;;;;5.57;1.00;;;11.80;99.90;;;;;;4999394;28;20220;-87
2023/01/13 00:03:10;;;;;;;4.15;1.00;;;11.80;99.90;;;;;;5010860;28;20029;-88
2023/01/13 00:05:36;;;;;;;5.93;1.17;;;11.70;99.90;;;;;;4988225;28;20021;-89
2023/01/13 00:08:05;;;;;;;3.92;0.77;;;11.80;99.90;;;;;;5000809;28;20017;-87
2023/01/13 00:10:32;;;;;;;4.35;0.93;;;11.80;99.90;;;;;;5004057;28;20235;-88
2023/01/13 00:12:58;;;;;;;4.60;0.85;;;11.70;99.90;;;;;;4965073;28;20057;-89
2023/01/13 00:15:24;;;;;;;7.20;1.07;;;11.80;99.90;;;;;;4998854;28;20214;-89
2023/01/13 00:17:50;;;;;;;3.03;1.00;;;11.80;99.90;;;;;;4994708;28;20497;-87
2023/01/13 00:20:16;;;;;;;4.88;1.20;;;11.80;99.90;;;;;;4985757;28;20071;-89
2023/01/13 00:22:41;;;;;;;3.73;1.00;;;11.70;99.90;;;;;;4996012;28;20052;-89
2023/01/13 00:25:07;;;;;;;3.92;1.00;;;11.70;99.90;;;;;;5005817;28;20014;-87
2023/01/13 00:27:33;;;;;;;6.47;1.20;;;11.70;99.90;;;;;;5006861;28;21584;-89
2023/01/13 00:29:59;;;;;;;4.40;1.00;;;11.70;99.90;;;;;;5032828;28;20461;-89
2023/01/13 00:32:26;;;;;;;4.13;0.90;;;11.60;99.90;;;;;;4987083;28;20309;-87
2023/01/13 00:34:52;;;;;;;4.47;0.88;;;11.60;99.90;;;;;;4990628;28;21347;-88
2023/01/13 00:37:18;;;;;;;7.90;1.30;;;11.50;99.90;;;;;;4991059;28;20021;-86
2023/01/13 00:39:44;;;;;;;7.57;1.42;;;11.50;99.90;;;;;;5010110;28;20021;-86
2023/01/13 00:44:55;;;;;;;5.38;1.40;;;11.40;99.90;;;;;;5017967;28;20577;-88
2023/01/13 00:47:22;;;;;;;7.70;1.30;;;11.40;99.90;;;;;;4978967;28;20275;-88
2023/01/13 00:49:49;;;;;;;4.72;1.02;;;11.40;99.90;;;;;;5021046;28;20032;-88
2023/01/13 00:52:15;;;;;;;6.03;1.40;;;11.40;99.90;;;;;;4984436;28;20594;-89
2023/01/13 00:54:40;;;;;;;7.20;1.50;;;11.30;99.90;;;;;;5000415;28;20025;-87
2023/01/13 00:57:07;;;;;;;5.30;1.00;;;11.30;99.90;;;;;;5007967;28;20140;-89
2023/01/13 00:59:33;;;;;;;8.90;1.50;;;11.20;99.90;;;;;;4977595;28;20053;-87
2023/01/13 01:01:59;;;;;;;8.63;1.65;;;11.20;99.90;;;;;;5002056;28;20675;-88
2023/01/13 01:04:25;;;;;;;7.03;1.20;;;11.20;99.90;;;;;;5011209;28;20025;-87
2023/01/13 01:06:51;;;;;;;7.57;1.40;;;11.10;99.90;;;;;;5000390;28;20041;-88
2023/01/13 01:09:17;;;;;;;6.82;1.17;;;11.10;99.90;;;;;;4987292;28;20328;-89
2023/01/13 01:11:43;;;;;;;6.40;1.27;;;11.10;99.90;;;;;;5007993;28;20092;-89
2023/01/13 01:14:11;;;;;;;8.00;1.40;;;11.10;99.90;;;;;;4971674;28;20614;-88
2023/01/13 01:16:39;;;;;;;7.50;1.30;;;11.00;99.90;;;;;;5009446;28;20121;-88
2023/01/13 01:19:05;;;;;;;7.80;1.45;;;11.00;99.90;;;;;;4997654;28;20206;-87
2023/01/13 01:21:32;;;;;;;8.27;1.20;;;11.00;99.90;;;;;;5010066;28;20415;-89
2023/01/13 01:23:59;;;;;;;7.97;1.30;;;11.00;99.90;;;;;;4993272;28;20013;-86
2023/01/13 01:26:27;;;;;;;7.45;1.60;;;11.00;99.90;;;;;;5013106;28;20017;-89
2023/01/13 01:28:54;;;;;;;7.28;1.13;;;10.90;99.90;;;;;;4981599;28;20128;-88
2023/01/13 01:31:24;;;;;;;7.47;1.10;;;10.90;99.90;;;;;;5023547;28;20369;-86
2023/01/13 01:33:50;;;;;;;6.80;1.20;;;10.90;99.90;;;;;;5009088;28;20053;-88
2023/01/13 01:36:17;;;;;;;5.67;1.03;;;10.90;99.90;;;;;;5005524;28;20646;-88
2023/01/13 01:38:44;;;;;;;7.53;1.10;;;10.90;99.90;;;;;;5005335;28;20025;-89
2023/01/13 01:41:21;;;;;;;5.70;1.55;;;10.90;99.90;;;;;;4991074;28;20646;-86
2023/01/13 01:44:04;;;;;;;7.68;1.48;;;10.90;99.90;;;;;;5024898;28;20534;-88
2023/01/13 01:46:30;;;;;;;4.93;1.13;;;10.90;99.90;;;;;;5000422;28;20016;-86
2023/01/13 01:49:19;;;;;;;6.00;1.20;;;10.80;99.90;;;;;;5000249;28;20059;-87
2023/01/13 01:51:51;;;;;;;5.47;1.10;;;10.80;99.90;;;;;;5020860;28;20029;-87
2023/01/13 01:54:46;;;;;;;6.35;1.25;;;10.80;99.90;;;;;;4995842;28;20258;-85
2023/01/13 01:57:18;;;;;;;3.57;0.80;;;10.80;99.90;;;;;;4993232;28;20041;-89
2023/01/13 01:59:44;;;;;;;6.03;0.98;;;10.80;99.90;;;;;;5014391;28;20044;-89
2023/01/13 02:02:10;;;;;;;5.53;0.90;;;10.80;99.90;;;;;;4998670;28;20246;-88
2023/01/13 02:04:39;;;;;;;5.95;1.13;;;10.80;99.90;;;;;;5023045;28;20028;-88
2023/01/13 02:07:05;;;;;;;4.47;0.93;;;10.80;99.90;;;;;;4998788;28;20584;-89
2023/01/13 02:09:32;;;;;;;4.10;0.90;;;10.70;99.90;;;;;;5019948;28;20104;-89
2023/01/13 02:14:43;;;;;;;4.88;1.05;;;10.80;99.90;;;;;;5008901;28;20029;-89
2023/01/13 02:17:23;;;;;;;7.65;1.08;;;10.70;99.90;;;;;;5001917;28;20044;-90
2023/01/13 02:20:07;;;;;;;6.07;1.05;;;10.70;99.90;;;;;;5001612;28;20091;-87
2023/01/13 02:22:39;;;;;;;4.83;0.90;;;10.70;99.90;;;;;;5008954;28;20817;-87
2023/01/13 02:25:35;;;;;;;8.02;1.10;;;10.70;99.90;;;;;;5024440;28;20097;-90
2023/01/13 02:28:23;;;;;;;5.90;1.13;;;10.70;99.90;;;;;;5010601;28;20035;-88
2023/01/13 02:33:54;;;;;;;6.57;1.05;;;10.70;99.90;;;;;;5012043;28;20032;-89
2023/01/13 02:36:57;;;;;;;4.23;0.73;;;10.70;99.90;;;;;;5020939;28;20021;-89
2023/01/13 02:39:34;;;;;;;5.75;1.00;;;10.70;99.90;;;;;;4992639;28;20040;-90
2023/01/13 02:45:10;;;;;;;3.97;0.90;;;10.70;99.90;;;;;;5003958;28;20661;-89
2023/01/13 02:47:39;;;;;;;5.18;1.08;;;10.70;99.90;;;;;;4995998;28;20040;-90
2023/01/13 02:50:10;;;;;;;5.93;0.90;;;10.60;99.90;;;;;;5014122;28;20036;-90
2023/01/13 02:52:56;;;;;;;2.67;0.85;;;10.70;99.90;;;;;;4990766;28;20033;-89
2023/01/13 02:55:52;;;;;;;3.92;0.70;;;10.70;99.90;;;;;;5006985;28;20086;-88
2023/01/13 02:58:24;;;;;;;2.78;0.75;;;10.70;99.90;;;;;;4993892;28;20103;-87
2023/01/13 03:00:50;;;;;;;5.82;0.93;;;10.80;99.90;;;;;;5012184;28;20658;-89
2023/01/13 03:03:15;;;;;;;6.40;1.27;;;10.80;99.90;;;;;;4980084;28;20553;-88
2023/01/13 03:05:44;;;;;;;6.40;0.95;;;10.80;99.90;;;;;;4983216;28;20044;-88
2023/01/13 03:08:22;;;;;;;4.38;0.90;;;10.80;99.90;;;;;;4983203;28;20044;-85
2023/01/13 03:11:10;;;;;;;4.67;0.90;;;10.80;99.90;;;;;;5004443;28;20040;-87
2023/01/13 03:13:48;;;;;;;5.20;1.17;;;10.90;99.90;;;;;;4995237;28;20090;-87
2023/01/13 03:16:27;;;;;;;8.52;1.27;;;10.80;99.90;;;;;;5008212;28;20033;-88
2023/01/13 03:19:13;;;;;;;8.27;1.13;;;10.80;99.90;;;;;;4990683;28;20136;-88
2023/01/13 03:21:45;;;;;;;4.25;0.95;;;10.80;99.90;;;;;;5001239;28;20382;-88
2023/01/13 03:24:16;;;;;;;4.43;0.80;;;10.70;99.90;;;;;;4990944;28;20464;-87
2023/01/13 03:26:46;;;;;;;4.70;0.80;;;10.60;99.90;;;;;;5023354;28;20029;-86
2023/01/13 03:29:27;;;;;;;5.28;1.13;;;10.60;99.90;;;;;;5023638;28;20116;-87
2023/01/13 03:32:00;;;;;;;3.85;0.80;;;10.60;99.90;;;;;;5005775;28;20331;-89
2023/01/13 03:34:33;;;;;;;3.92;1.20;;;10.50;99.90;;;;;;4998218;28;20079;-87
2023/01/13 03:37:03;;;;;;;4.17;1.10;;;10.50;99.90;;;;;;5010060;28;20226;-88
2023/01/13 03:39:33;;;;;;;7.65;1.10;;;10.40;99.90;;;;;;4987586;28;20481;-89
2023/01/13 03:42:09;;;;;;;5.18;0.98;;;10.40;99.90;;;;;;5000793;28;20081;-87
2023/01/13 03:44:47;;;;;;;3.97;1.08;;;10.40;99.90;;;;;;4990440;28;20024;-87
2023/01/13 03:47:26;;;;;;;4.90;1.17;;;10.40;99.90;;;;;;4997394;28;21083;-88
2023/01/13 03:49:52;;;;;;;6.87;1.20;;;10.40;99.90;;;;;;4976273;28;20467;-88
2023/01/13 03:52:41;;;;;;;5.82;0.98;;;10.40;99.90;;;;;;5008195;28;20029;-87
2023/01/13 03:55:14;;;;;;;5.97;1.23;;;10.40;99.90;;;;;;5020304;28;20468;-89
2023/01/13 03:58:13;;;;;;;3.03;0.87;;;10.40;99.90;;;;;;5024972;28;20041;-87
2023/01/13 04:01:14;;;;;;;5.03;1.08;;;10.50;99.90;;;;;;5016963;28;20116;-88
2023/01/13 04:03:46;;;;;;;3.30;0.90;;;10.50;99.90;;;;;;5013014;28;20094;-89
2023/01/13 04:06:44;;;;;;;4.53;1.05;;;10.50;99.90;;;;;;4980336;28;20114;-87
2023/01/13 04:09:17;;;;;;;5.40;1.00;;;10.40;99.90;;;;;;5013554;28;20076;-88
2023/01/13 04:11:57;;;;;;;3.87;0.93;;;10.40;99.90;;;;;;5012674;28;20036;-87
2023/01/13 04:14:24;;;;;;;3.42;0.85;;;10.40;99.90;;;;;;5023356;28;20020;-87
2023/01/13 04:16:51;;;;;;;5.20;0.85;;;10.40;99.90;;;;;;4981896;28;20409;-88
2023/01/13 04:19:17;;;;;;;6.45;1.10;;;10.40;99.90;;;;;;4998959;28;20044;-88
2023/01/13 04:21:43;;;;;;;4.55;0.90;;;10.40;99.90;;;;;;4977789;28;20030;-88
2023/01/13 04:24:09;;;;;;;5.67;1.17;;;10.30;99.90;;;;;;5003105;28;20529;-86
2023/01/13 04:26:35;;;;;;;4.63;1.30;;;10.40;99.90;;;;;;5001026;28;20032;-88
2023/01/13 04:29:01;;;;;;;6.38;0.80;;;10.30;99.90;;;;;;4991394;28;20025;-89
2023/01/13 04:31:27;;;;;;;2.50;0.60;;;10.30;99.90;;;;;;5003202;28;20021;-88
2023/01/13 04:33:52;;;;;;;4.05;0.88;;;10.30;99.90;;;;;;4989891;28;20311;-88
2023/01/13 04:36:18;;;;;;;4.83;0.93;;;10.30;99.90;;;;;;4976741;28;20036;-87
2023/01/13 04:38:44;;;;;;;5.18;0.90;;;10.20;99.90;;;;;;4996821;28;20033;-88
2023/01/13 04:41:10;;;;;;;5.47;0.90;;;10.30;99.90;;;;;;5004516;28;20013;-88
2023/01/13 04:43:36;;;;;;;4.05;1.00;;;10.30;99.90;;;;;;4994910;28;20051;-87
2023/01/13 04:46:01;;;;;;;4.57;0.93;;;10.20;99.90;;;;;;4982167;28;20453;-88
2023/01/13 04:48:27;;;;;;;2.63;0.70;;;10.20;99.90;;;;;;4991222;28;20505;-87
2023/01/13 04:50:53;;;;;;;5.57;1.42;;;10.20;99.90;;;;;;4990854;28;21117;-87
2023/01/13 04:53:19;;;;;;;4.33;0.80;;;10.20;99.90;;;;;;4994156;28;20116;-88
2023/01/13 04:55:46;;;;;;;4.35;0.90;;;10.30;99.90;;;;;;4988614;28;20052;-88
2023/01/13 04:58:12;;;;;;;4.93;0.85;;;10.30;99.90;;;;;;5000566;28;20574;-89
2023/01/13 05:00:38;;;;;;;4.03;0.60;;;10.30;99.90;;;;;;4986848;28;20025;-88
2023/01/13 05:03:04;;;;;;;5.50;1.10;;;10.30;99.90;;;;;;5001363;28;21428;-87
2023/01/13 05:05:30;;;;;;;3.80;0.70;;;10.30;99.90;;;;;;5002304;28;20996;-88
2023/01/13 05:07:56;;;;;;;5.68;0.80;;;10.30;99.90;;;;;;4973267;28;20057;-89
2023/01/13 05:10:22;;;;;;;4.72;0.90;;;10.40;99.90;;;;;;4986234;28;20018;-87
2023/01/13 05:18:18;;;;;;;3.92;0.80;;;10.40;99.90;;;;;;4999183;28;20021;-87
2023/01/13 05:20:45;;;;;;;6.50;0.82;;;10.40;99.90;;;;;;4968971;28;20679;-90
2023/01/13 05:25:55;;;;;;;3.03;0.77;;;10.30;99.90;;;;;;4975576;28;20231;-88
2023/01/13 05:28:21;;;;;;;4.18;1.00;;;10.20;99.90;;;;;;4985427;28;20477;-87
2023/01/13 05:30:48;;;;;;;2.87;1.00;;;10.20;99.90;;;;;;4981570;28;20299;-86
2023/01/13 05:33:16;;;;;;;6.43;1.20;;;10.20;99.90;;;;;;4967576;28;20914;-88
2023/01/13 05:35:44;;;;;;;2.92;0.85;;;10.20;99.90;;;;;;5003779;28;20025;-88
2023/01/13 05:38:10;;;;;;;4.07;0.60;;;10.20;99.90;;;;;;5011985;28;20025;-88
2023/01/13 05:43:25;;;;;;;4.47;0.98;;;10.20;99.90;;;;;;4982560;28;20032;-88
2023/01/13 05:46:03;;;;;;;3.23;0.73;;;10.20;99.90;;;;;;4983680;28;20470;-88
2023/01/13 05:48:38;;;;;;;3.42;0.70;;;10.10;99.90;;;;;;4989639;28;20068;-88
2023/01/13 05:51:06;;;;;;;5.00;1.20;;;10.10;99.90;;;;;;4980236;28;20657;-88
2023/01/13 05:53:32;;;;;;;3.67;0.77;;;10.10;99.90;;;;;;4984253;28;20025;-88
2023/01/13 05:55:59;;;;;;;3.17;0.85;;;10.10;99.90;;;;;;4968798;28;20103;-87
2023/01/13 05:58:26;;;;;;;4.63;1.00;;;10.00;99.90;;;;;;4998452;28;20850;-87
2023/01/13 06:00:52;;;;;;;4.07;0.70;;;10.00;99.90;;;;;;4987207;28;20315;-87
2023/01/13 06:03:19;;;;;;;3.90;1.00;;;10.00;99.90;;;;;;4979960;28;20040;-88
2023/01/13 06:05:46;;;;;;;4.20;0.90;;;10.00;99.90;;;;;;4968397;28;20041;-88
2023/01/13 06:08:12;;;;;;;3.72;0.90;;;9.90;99.90;;;;;;5016321;28;20385;-89
2023/01/13 06:10:38;;;;;;;4.83;0.90;;;10.00;99.90;;;;;;4996768;28;20052;-89
2023/01/13 06:13:04;;;;;;;4.53;1.00;;;9.90;99.90;;;;;;4995192;28;20296;-88
2023/01/13 06:15:30;;;;;;;5.75;0.90;;;10.00;99.90;;;;;;5023091;28;20063;-87
2023/01/13 06:17:56;;;;;;;6.55;1.60;;;10.00;99.90;;;;;;4992802;28;20524;-88
2023/01/13 06:20:23;;;;;;;4.43;0.80;;;10.00;99.90;;;;;;4975010;28;20218;-89
2023/01/13 06:22:51;;;;;;;5.45;1.20;;;10.00;99.90;;;;;;4995443;28;20033;-89
2023/01/13 06:25:29;;;;;;;6.50;0.90;;;10.00;99.90;;;;;;4994460;28;20155;-88
2023/01/13 06:27:57;;;;;;;5.60;0.95;;;9.90;99.90;;;;;;4983857;28;20059;-87
2023/01/13 06:30:24;;;;;;;3.87;0.83;;;9.90;99.90;;;;;;5000517;28;20029;-89
2023/01/13 06:32:54;;;;;;;7.03;1.05;;;9.90;99.90;;;;;;4989747;28;20051;-88
2023/01/13 06:35:24;;;;;;;6.53;1.00;;;9.90;99.90;;;;;;4990958;28;20029;-89
2023/01/13 06:37:55;;;;;;;7.28;0.93;;;9.90;99.90;;;;;;4992777;28;20493;-90
2023/01/13 06:40:21;;;;;;;5.43;0.77;;;9.90;99.90;;;;;;5022304;28;20021;-87
2023/01/13 06:45:32;;;;;;;4.13;0.90;;;9.90;99.90;;;;;;5022113;28;20029;-88
2023/01/13 06:47:58;;;;;;;3.60;1.00;;;9.90;99.90;;;;;;4990968;28;20040;-87
2023/01/13 06:50:25;;;;;;;7.88;1.00;;;9.90;99.90;;;;;;5020389;28;20274;-88
2023/01/13 06:52:51;;;;;;;5.93;0.87;;;9.90;99.90;;;;;;4988793;28;20040;-88
2023/01/13 06:55:16;;;;;;;7.43;1.00;;;9.80;99.90;;;;;;5014745;28;20234;-88
2023/01/13 06:57:50;;;;;;;6.72;1.00;;;9.80;99.90;;;;;;4976763;28;20021;-88
2023/01/13 07:00:16;;;;;;;5.77;1.20;;;9.80;99.90;;;;;;5009721;28;20250;-87
2023/01/13 07:02:42;;;;;;;5.40;1.15;;;9.80;99.90;;;;;;4990632;28;20029;-87
2023/01/13 07:05:08;;;;;;;4.97;1.05;;;9.80;99.90;;;;;;5003709;28;20017;-88
2023/01/13 07:07:34;;;;;;;5.15;1.00;;;9.80;99.90;;;;;;4997285;28;20405;-88
2023/01/13 07:10:02;;;;;;;8.15;1.20;;;9.80;99.90;;;;;;5015638;28;20037;-87
2023/01/13 07:12:28;;;;;;;7.70;1.43;;;9.80;99.90;;;;;;5017755;28;20029;-87
2023/01/13 07:17:37;;;;;;;10.07;2.17;;;9.80;99.90;;;;;;5011425;28;20112;-88
2023/01/13 07:20:04;;;;;;;9.00;1.27;;;9.80;99.90;;;;;;4980115;28;20025;-89
2023/01/13 07:22:29;;;;;;;7.40;1.48;;;9.80;99.90;;;;;;5009185;28;20017;-87
2023/01/13 07:24:55;;;;;;;7.13;1.00;;;9.80;99.90;;;;;;4990292;28;20167;-90
2023/01/13 07:27:21;;;;;;;9.90;1.52;;;9.80;99.90;;;;;;5003875;28;20021;-88
2023/01/13 07:29:46;;;;;;;8.55;1.25;;;9.80;99.90;;;;;;4987635;28;20052;-88
2023/01/13 07:32:14;;;;;;;6.83;1.30;;;9.80;99.90;;;;;;4983068;28;20231;-87
2023/01/13 07:34:40;;;;;;;6.57;1.38;;;9.80;99.90;;;;;;5001728;28;20596;-88
2023/01/13 07:37:06;;;;;;;4.90;1.00;;;9.80;99.90;;;;;;5004653;28;20115;-88
2023/01/13 07:39:31;;;;;;;12.57;1.60;;;9.80;99.90;;;;;;5010382;28;20151;-88
2023/01/13 07:44:42;;;;;;;9.90;1.33;;;9.90;99.90;;;;;;5008397;28;20441;-89
2023/01/13 07:47:10;;;;;;;6.30;1.53;;;9.80;99.90;;;;;;4982584;28;20539;-89
2023/01/13 07:49:36;;;;;;;7.95;1.40;;;9.90;99.90;;;;;;5010746;28;20358;-88
2023/01/13 07:52:02;;;;;;;6.65;1.02;;;9.90;99.90;;;;;;4992768;28;20086;-88
2023/01/13 07:54:28;;;;;;;9.68;1.30;;;9.90;99.90;;;;;;4995780;28;21554;-87
2023/01/13 07:56:55;;;;;;;9.13;1.30;;;9.90;99.90;;;;;;4997160;28;20036;-87
2023/01/13 07:59:21;;;;;;;9.02;1.52;;;9.90;99.90;;;;;;5028617;28;20070;-90
2023/01/13 08:01:47;;;;;;;7.80;1.38;;;9.90;99.90;;;;;;4991781;28;20048;-89
2023/01/13 08:04:13;;;;;;;9.27;1.40;;;9.90;99.90;;;;;;4987382;28;20027;-87
2023/01/13 08:06:42;;;;;;;10.38;1.90;;;9.90;99.90;;;;;;4992074;28;20497;-87
2023/01/13 08:09:08;;;;;;;5.97;1.40;;;9.90;99.90;;;;;;5016264;28;20155;-88
2023/01/13 08:11:33;;;;;;;7.27;1.47;;;10.00;99.90;;;;;;4979475;28;20024;-89
2023/01/13 08:14:00;;;;;;;8.18;1.20;;;10.00;99.90;;;;;;5014509;28;20338;-86
2023/01/13 08:16:26;;;;;;;9.15;1.33;;;10.10;99.90;;;;;;4990993;28;20036;-87
2023/01/13 08:18:52;;;;;;;7.20;1.40;;;10.20;99.90;;;;;;4998216;28;20025;-89
2023/01/13 08:21:18;;;;;;;7.50;1.65;;;10.20;99.90;;;;;;5002912;28;20025;-89
2023/01/13 08:23:44;;;;;;;9.37;1.50;;;10.20;99.90;;;;;;5016257;28;20033;-87
2023/01/13 08:26:16;;;;;;;7.80;1.27;;;10.30;99.90;;;;;;5011363;28;20067;-87
2023/01/13 08:28:42;;;;;;;7.20;1.20;;;10.30;99.90;;;;;;5000541;28;20037;-88
2023/01/13 08:31:14;;;;;;;7.00;1.20;;;10.30;99.90;;;;;;4974976;28;20118;-87
2023/01/13 08:33:41;;;;;;;9.75;1.42;;;10.40;99.90;;;;;;5001210;28;20032;-86
2023/01/13 08:36:09;;;;;;;8.63;1.17;;;10.40;99.90;;;;;;4985295;28;20125;-87
2023/01/13 08:38:36;;;;;;;10.57;1.60;;;10.40;99.90;;;;;;4997709;28;20033;-87
2023/01/13 08:41:11;;;;;;;9.10;1.48;;;10.40;99.90;;;;;;4979760;28;20025;-88
2023/01/13 08:43:37;;;;;;;9.00;1.38;;;10.50;99.90;;;;;;5000044;28;20029;-87
2023/01/13 08:46:03;;;;;;;6.77;1.10;;;10.50;99.90;;;;;;5008119;28;21085;-89
2023/01/13 08:48:29;;;;;;;6.97;1.33;;;10.50;99.90;;;;;;5002579;28;20120;-87
2023/01/13 08:51:01;;;;;;;7.82;1.30;;;10.60;99.90;;;;;;4981848;28;20025;-88
2023/01/13 08:53:27;;;;;;;10.65;2.03;;;10.70;99.90;;;;;;4987012;28;20021;-88
2023/01/13 08:55:53;;;;;;;8.00;1.90;;;10.70;99.90;;;;;;4973727;28;20610;-89
2023/01/13 08:58:19;;;;;;;7.40;1.42;;;10.80;99.90;;;;;;5005702;28;20383;-88
2023/01/13 09:00:44;;;;;;;8.20;1.47;;;10.90;99.90;;;;;;4982957;28;20074;-87
2023/01/13 09:03:10;;;;;;;11.70;1.77;;;11.00;99.90;;;;;;4991326;28;20126;-87
2023/01/13 09:05:36;;;;;;;5.07;1.20;;;11.00;99.90;;;;;;4986797;28;20048;-88
2023/01/13 09:08:02;;;;;;;12.00;1.63;;;11.10;99.90;;;;;;4985806;28;20059;-89
2023/01/13 09:10:28;;;;;;;9.95;1.63;;;11.20;99.90;;;;;;5005768;28;20017;-87
2023/01/13 09:13:27;;;;;;;8.15;1.40;;;11.20;99.90;;;;;;4993528;28;20576;-89
2023/01/13 09:15:46;;;;;;;9.60;1.70;;;11.30;99.90;;;;;;4992012;28;20037;-88
2023/01/13 09:18:12;;;;;;;11.80;2.17;;;11.40;99.90;;;;;;4984285;28;20059;-87
2023/01/13 09:20:38;;;;;;;8.52;1.85;;;11.40;99.90;;;;;;5003851;28;20070;-88
2023/01/13 09:23:04;;;;;;;7.00;1.67;;;11.60;99.90;;;;;;5004092;28;20104;-88
2023/01/13 09:25:30;;;;;;;8.45;1.80;;;11.60;99.90;;;;;;4989669;28;20021;-89
2023/01/13 09:27:57;;;;;;;10.67;1.73;;;11.70;99.90;;;;;;4984402;28;20048;-90
2023/01/13 09:30:23;;;;;;;9.75;1.75;;;11.80;99.90;;;;;;4990174;28;20306;-88
2023/01/13 09:34:58;;;;;;;9.20;2.20;;;11.90;99.90;;;;;;4964110;28;20043;-89
2023/01/13 09:35:35;;;;;;;8.98;2.10;;;12.00;99.90;;;;;;4999349;28;20029;-88
2023/01/13 09:38:01;;;;;;;10.73;1.90;;;12.20;99.90;;;;;;4988765;28;20036;-86
2023/01/13 09:40:26;;;;;;;8.90;1.73;;;12.30;99.90;;;;;;4999388;28;20286;-89
2023/01/13 09:45:51;;;;;;;11.15;1.67;;;12.40;99.90;;;;;;5015208;28;20025;-88
2023/01/13 09:48:28;;;;;;;8.57;1.60;;;12.40;99.90;;;;;;5002361;28;20041;-87
2023/01/13 09:51:00;;;;;;;7.57;1.17;;;12.40;99.90;;;;;;4987022;28;20106;-90
2023/01/13 09:53:33;;;;;;;6.25;1.00;;;12.50;99.90;;;;;;5012600;28;20035;-87
2023/01/13 09:55:59;;;;;;;10.55;1.73;;;12.50;99.90;;;;;;4985376;28;20048;-87
2023/01/13 09:58:26;;;;;;;8.88;1.85;;;12.60;99.90;;;;;;4981780;28;20021;-89
2023/01/13 10:00:54;;;;;;;6.63;1.50;;;12.60;99.90;;;;;;5012859;28;20029;-87
2023/01/13 10:03:28;;;;;;;8.63;1.30;;;12.60;99.90;;;;;;5015112;28;20045;-88
2023/01/13 10:06:15;;;;;;;7.82;1.50;;;12.60;99.90;;;;;;4994540;28;20065;-87
2023/01/13 10:08:43;;;;;;;7.05;1.63;;;12.50;99.90;;;;;;5016008;28;20033;-87
2023/01/13 10:14:27;;;;;;;8.50;1.50;;;12.30;99.90;;;;;;5015253;28;20040;-90
2023/01/13 10:16:58;;;;;;;6.40;1.50;;;12.20;99.90;;;;;;5014466;28;20402;-87
2023/01/13 10:19:43;;;;;;;9.77;1.80;;;12.20;99.90;;;;;;4982502;28;20037;-87
2023/01/13 10:22:23;;;;;;;10.30;1.60;;;12.10;99.90;;;;;;4989697;28;20013;-87
2023/01/13 10:25:08;;;;;;;6.18;1.33;;;12.10;99.90;;;;;;5020924;28;20485;-88
2023/01/13 10:27:41;;;;;;;6.77;1.30;;;12.00;99.90;;;;;;4984524;28;20036;-88
2023/01/13 10:30:21;;;;;;;8.30;2.00;;;12.00;99.90;;;;;;4983214;28;20056;-87
2023/01/13 10:32:59;;;;;;;7.00;1.63;;;12.00;99.90;;;;;;4999778;28;20148;-89
2023/01/13 10:35:54;;;;;;;7.40;1.48;;;12.00;99.90;;;;;;5012897;28;20126;-87
2023/01/13 10:38:33;;;;;;;9.68;1.75;;;11.90;99.90;;;;;;5005863;28;20033;-89
2023/01/13 10:41:01;;;;;;;5.90;1.70;;;11.90;99.90;;;;;;5011864;28;20107;-88
2023/01/13 10:43:29;;;;;;;7.28;1.30;;;11.90;99.90;;;;;;4996694;28;20243;-87
2023/01/13 10:46:02;;;;;;;9.50;1.40;;;11.90;99.90;;;;;;5006039;28;20480;-87
2023/01/13 10:48:55;;;;;;;7.50;1.45;;;11.90;99.90;;;;;;4991450;28;20025;-87
2023/01/13 10:51:44;;;;;;;7.75;1.27;;;11.80;99.90;;;;;;4995666;28;20041;-87
2023/01/13 10:54:12;;;;;;;5.77;1.53;;;11.80;99.90;;;;;;5022229;28;20028;-89
2023/01/13 10:56:41;;;;;;;5.40;1.00;;;11.80;99.90;;;;;;5016081;28;20033;-87
2023/01/13 10:59:27;;;;;;;7.63;1.13;;;11.80;99.90;;;;;;5003709;28;20021;-90
2023/01/13 11:02:01;;;;;;;10.68;1.70;;;11.70;99.90;;;;;;4981833;28;20025;-87
2023/01/13 11:04:30;;;;;;;9.95;1.67;;;11.70;99.90;;;;;;4973302;28;20128;-87
2023/01/13 11:06:57;;;;;;;8.60;1.63;;;11.70;99.90;;;;;;5002286;28;20045;-85
2023/01/13 11:09:25;;;;;;;6.03;1.25;;;11.70;99.90;;;;;;4983651;28;20035;-87
2023/01/13 11:11:54;;;;;;;6.90;1.40;;;11.60;99.90;;;;;;5015754;28;20044;-87
2023/01/13 11:14:31;;;;;;;5.97;1.10;;;11.60;99.90;;;;;;4995304;28;20234;-87
2023/01/13 11:17:01;;;;;;;5.00;1.20;;;11.60;99.90;;;;;;4988369;28;20123;-86
2023/01/13 11:19:29;;;;;;;5.57;1.10;;;11.60;99.90;;;;;;4975997;28;20187;-84
2023/01/13 11:22:16;;;;;;;6.40;1.20;;;11.60;99.90;;;;;;5004850;28;20090;-88
2023/01/13 11:24:51;;;;;;;8.57;1.35;;;11.60;99.90;;;;;;5002159;28;20759;-87
2023/01/13 11:27:40;;;;;;;5.70;1.10;;;11.70;99.90;;;;;;4977453;28;20444;-88
2023/01/13 11:30:30;;;;;;;8.07;1.20;;;11.70;99.90;;;;;;5005963;28;20060;-88
2023/01/13 11:33:23;;;;;;;5.03;1.43;;;11.70;99.90;;;;;;5005637;28;20173;-87
2023/01/13 11:36:11;;;;;;;3.65;0.90;;;11.70;99.90;;;;;;5008721;28;20033;-87
2023/01/13 11:38:46;;;;;;;4.30;1.27;;;11.80;99.90;;;;;;5019358;28;20402;-86
2023/01/13 11:41:41;;;;;;;4.18;0.90;;;11.80;99.90;;;;;;4985714;28;20025;-88
2023/01/13 11:44:31;;;;;;;6.53;1.40;;;11.80;99.90;;;;;;5005371;28;20082;-87
2023/01/13 11:46:57;;;;;;;5.03;1.10;;;11.80;99.90;;;;;;4971415;28;20546;-88
2023/01/13 11:49:27;;;;;;;4.95;1.00;;;11.90;99.90;;;;;;4986420;28;20402;-90
2023/01/13 11:52:18;;;;;;;4.45;1.10;;;11.90;99.90;;;;;;4992110;28;20044;-85
2023/01/13 11:55:10;;;;;;;6.90;1.35;;;11.80;99.90;;;;;;5015423;28;20107;-86
2023/01/13 11:57:43;;;;;;;8.43;1.38;;;11.90;99.90;;;;;;4984350;28;20304;-87
2023/01/13 12:00:29;;;;;;;10.13;1.60;;;11.90;99.90;;;;;;4983292;28;20025;-87
2023/01/13 12:03:29;;;;;;;7.25;1.30;;;11.80;99.90;;;;;;5019042;28;20030;-86
2023/01/13 12:06:29;;;;;;;6.20;1.25;;;11.90;99.90;;;;;;4998660;28;20081;-89
2023/01/13 12:09:01;;;;;;;2.20;0.80;;;11.90;99.90;;;;;;4945813;28;20041;-87
2023/01/13 12:11:30;;;;;;;7.47;1.58;;;11.90;99.90;;;;;;4988197;28;20029;-86
2023/01/13 12:14:21;;;;;;;9.63;1.43;;;11.90;99.90;;;;;;4992396;28;20030;-89
2023/01/13 12:16:49;;;;;;;8.82;1.38;;;11.90;99.90;;;;;;4998058;28;20475;-86
2023/01/13 12:19:29;;;;;;;6.85;1.40;;;11.90;99.90;;;;;;4981469;28;20037;-87
2023/01/13 12:22:09;;;;;;;6.65;1.08;;;11.90;99.90;;;;;;4997938;28;20774;-86
2023/01/13 12:24:59;;;;;;;3.95;0.90;;;11.90;99.90;;;;;;5005662;28;20029;-87
2023/01/13 12:27:34;;;;;;;6.33;1.00;;;11.90;99.90;;;;;;4980594;28;20025;-88
2023/01/13 12:30:12;;;;;;;3.50;1.00;;;11.90;99.90;;;;;;5005084;28;20159;-88
2023/01/13 12:32:39;;;;;;;4.55;1.00;;;11.90;99.90;;;;;;4997424;28;20029;-88
2023/01/13 12:35:37;;;;;;;5.35;1.33;;;11.90;99.90;;;;;;4994534;28;20414;-88
2023/01/13 12:38:14;;;;;;;5.82;1.25;;;11.90;99.90;;;;;;4962782;28;20124;-87
2023/01/13 12:40:50;;;;;;;4.87;0.93;;;11.90;99.90;;;;;;5004125;28;20231;-88
2023/01/13 12:46:23;;;;;;;5.70;1.10;;;12.00;99.90;;;;;;4986690;28;20730;-87
2023/01/13 12:48:58;;;;;;;6.00;1.20;;;12.00;99.90;;;;;;4985447;28;20397;-86
2023/01/13 12:51:32;;;;;;;6.70;1.25;;;12.00;99.90;;;;;;5022503;28;20033;-88
2023/01/13 12:53:59;;;;;;;5.63;1.13;;;12.00;99.90;;;;;;4990549;28;20033;-88
2023/01/13 12:56:34;;;;;;;6.35;1.20;;;12.00;99.90;;;;;;4993651;28;20033;-88
2023/01/13 12:59:33;;;;;;;6.82;1.00;;;12.00;99.90;;;;;;4992569;28;20037;-86
2023/01/13 13:02:07;;;;;;;9.57;1.42;;;11.90;99.90;;;;;;4954128;28;20194;-87
2023/01/13 13:04:51;;;;;;;4.97;1.10;;;12.00;99.90;;;;;;4996694;28;20037;-87
2023/01/13 13:07:29;;;;;;;6.07;1.00;;;11.90;99.90;;;;;;4976261;28;20345;-88
2023/01/13 13:10:04;;;;;;;5.38;1.23;;;11.90;99.90;;;;;;5005666;28;20068;-87
2023/01/13 13:15:34;;;;;;;3.00;0.88;;;11.90;99.90;;;;;;5018021;28;20586;-86
2023/01/13 13:18:19;;;;;;;2.83;0.90;;;11.90;99.90;;;;;;4985717;28;20192;-88
2023/01/13 13:21:00;;;;;;;7.10;1.10;;;11.90;99.90;;;;;;4996409;28;20041;-86
2023/01/13 13:23:36;;;;;;;4.22;0.93;;;11.80;99.90;;;;;;4967457;28;20393;-87
2023/01/13 13:26:15;;;;;;;4.63;1.00;;;11.80;99.90;;;;;;5003224;28;20052;-87
2023/01/13 13:28:58;;;;;;;4.10;1.00;;;11.80;99.90;;;;;;5009431;28;20075;-86
2023/01/13 13:31:58;;;;;;;3.90;1.00;;;11.80;99.90;;;;;;5009166;28;20041;-88
2023/01/13 13:34:55;;;;;;;6.60;1.10;;;11.70;99.90;;;;;;4983084;28;20123;-87
2023/01/13 13:49:15;;;;;;;3.80;0.80;;;11.60;99.90;;;;;;5016158;28;20685;-87
2023/01/13 13:52:05;;;;;;;5.82;1.10;;;11.60;99.90;;;;;;4979296;28;20024;-87
2023/01/13 13:54:31;;;;;;;6.88;1.10;;;11.60;99.90;;;;;;4987676;28;20028;-86
2023/01/13 13:56:58;;;;;;;4.43;0.90;;;11.60;99.90;;;;;;4978309;28;20030;-87
2023/01/13 13:59:29;;;;;;;8.07;1.25;;;11.60;99.90;;;;;;4974922;28;20041;-88
2023/01/13 14:02:00;;;;;;;5.23;1.00;;;11.70;99.90;;;;;;4999144;28;20094;-87
2023/01/13 14:04:29;;;;;;;4.88;1.00;;;11.70;99.90;;;;;;5013106;28;20029;-87
2023/01/13 14:07:13;;;;;;;6.57;1.73;;;11.80;99.90;;;;;;4984011;28;20033;-87